Time,TemperatureF,DewpointF,PressureIn,WindDirection,WindDirectionDegrees,WindSpeedMPH,WindSpeedGustMPH,Humidity,HourlyPrecipIn,Conditions,Clouds,dailyrainin,SoftwareType,DateUTC
2013-01-05 00:05:00,24.1,21.0,30.32,SW,218,4.0,8.0,87,0.00,,,0.00,weatherlink.com 1.10,2013-01-05 05:05:00,
2013-01-05 00:20:00,23.9,21.0,30.32,SSW,205,3.0,9.0,88,0.00,,,0.00,weatherlink.com 1.10,2013-01-05 05:20:00,
2013-01-05 00:35:00,23.9,21.0,30.32,SW,231,6.0,9.0,88,0.00,,,0.00,weatherlink.com 1.10,2013-01-05 05:35:00,
2013-01-05 00:50:00,24.0,21.0,30.32,SW,221,3.0,10.0,87,0.00,,,0.00,weatherlink.com 1.10,2013-01-05 05:50:00,
2013-01-05 01:05:00,24.0,21.0,30.32,SSW,207,4.0,9.0,87,0.00,,,0.00,weatherlink.com 1.10,2013-01-05 06:05:00,
2013-01-05 01:20:00,24.2,21.0,30.32,WSW,240,9.0,10.0,86,0.00,,,0.00,weatherlink.com 1.10,2013-01-05 06:20:00,
2013-01-05 01:36:00,24.1,21.0,30.32,SSW,203,7.0,8.0,86,0.00,,,0.00,weatherlink.com 1.10,2013-01-05 06:36:00,
2013-01-05 01:50:00,24.0,20.0,30.32,SW,226,5.0,7.0,86,0.00,,,0.00,weatherlink.com 1.10,2013-01-05 06:50:00,
2013-01-05 02:06:00,23.8,20.0,30.32,SSW,210,4.0,6.0,86,0.00,,,0.00,weatherlink.com 1.10,2013-01-05 07:06:00,
2013-01-05 02:21:00,23.5,20.0,30.32,SSW,212,3.0,5.0,86,0.00,,,0.00,weatherlink.com 1.10,2013-01-05 07:21:00,
2013-01-05 02:36:00,23.3,20.0,30.32,South,181,4.0,6.0,86,0.00,,,0.00,weatherlink.com 1.10,2013-01-05 07:36:00,
2013-01-05 02:51:00,23.1,20.0,30.32,South,181,3.0,4.0,87,0.00,,,0.00,weatherlink.com 1.10,2013-01-05 07:51:00,
2013-01-05 03:06:00,22.8,20.0,30.33,South,172,3.0,5.0,87,0.00,,,0.00,weatherlink.com 1.10,2013-01-05 08:06:00,
2013-01-05 03:21:00,22.8,20.0,30.34,South,180,4.0,5.0,87,0.00,,,0.00,weatherlink.com 1.10,2013-01-05 08:21:00,
2013-01-05 03:36:00,23.0,20.0,30.34,SSW,200,4.0,7.0,87,0.00,,,0.00,weatherlink.com 1.10,2013-01-05 08:36:00,
2013-01-05 03:51:00,23.1,20.0,30.34,SSW,193,3.0,7.0,87,0.00,,,0.00,weatherlink.com 1.10,2013-01-05 08:51:00,
2013-01-05 04:06:00,22.7,19.0,30.34,WSW,249,4.0,7.0,87,0.00,,,0.00,weatherlink.com 1.10,2013-01-05 09:06:00,
2013-01-05 04:21:00,22.6,19.0,30.34,South,172,8.0,8.0,86,0.00,,,0.00,weatherlink.com 1.10,2013-01-05 09:21:00,
2013-01-05 04:36:00,22.4,19.0,30.35,SW,214,3.0,7.0,87,0.00,,,0.00,weatherlink.com 1.10,2013-01-05 09:36:00,
2013-01-05 04:51:00,22.2,19.0,30.34,SSW,213,1.0,7.0,88,0.00,,,0.00,weatherlink.com 1.10,2013-01-05 09:51:00,
2013-01-05 05:06:00,22.0,19.0,30.33,SSE,160,1.0,3.0,87,0.00,,,0.00,weatherlink.com 1.10,2013-01-05 10:06:00,
2013-01-05 05:21:00,21.8,19.0,30.33,South,176,1.0,2.0,88,0.00,,,0.00,weatherlink.com 1.10,2013-01-05 10:21:00,
2013-01-05 05:36:00,21.6,19.0,30.33,South,170,3.0,3.0,88,0.00,,,0.00,weatherlink.com 1.10,2013-01-05 10:36:00,
2013-01-05 05:51:00,21.4,18.0,30.33,South,181,2.0,4.0,88,0.00,,,0.00,weatherlink.com 1.10,2013-01-05 10:51:00,
2013-01-05 06:06:00,21.5,19.0,30.34,South,188,4.0,7.0,88,0.00,,,0.00,weatherlink.com 1.10,2013-01-05 11:06:00,
2013-01-05 06:21:00,21.4,18.0,30.33,SSW,195,3.0,5.0,88,0.00,,,0.00,weatherlink.com 1.10,2013-01-05 11:21:00,
2013-01-05 06:36:00,21.2,18.0,30.33,SSE,150,2.0,4.0,88,0.00,,,0.00,weatherlink.com 1.10,2013-01-05 11:36:00,
2013-01-05 06:51:00,21.4,18.0,30.33,SSE,163,2.0,4.0,88,0.00,,,0.00,weatherlink.com 1.10,2013-01-05 11:51:00,
2013-01-05 07:21:00,21.6,19.0,30.33,SSE,156,2.0,3.0,88,0.00,,,0.00,weatherlink.com 1.10,2013-01-05 12:21:00,
2013-01-05 07:36:00,21.2,18.0,30.32,SSE,150,1.0,4.0,88,0.00,,,0.00,weatherlink.com 1.10,2013-01-05 12:36:00,
2013-01-05 07:51:00,21.2,18.0,30.32,SE,125,1.0,2.0,88,0.00,,,0.00,weatherlink.com 1.10,2013-01-05 12:51:00,
2013-01-05 08:06:00,20.7,18.0,30.32,SE,135,3.0,4.0,89,0.00,,,0.00,weatherlink.com 1.10,2013-01-05 13:06:00,
2013-01-05 08:21:00,20.2,18.0,30.32,East,96,0.0,3.0,89,0.00,,,0.00,weatherlink.com 1.10,2013-01-05 13:21:00,
2013-01-05 08:36:00,20.2,18.0,30.32,SSE,148,2.0,5.0,90,0.00,,,0.00,weatherlink.com 1.10,2013-01-05 13:36:00,
2013-01-05 08:51:00,20.8,18.0,30.32,SSE,158,3.0,5.0,90,0.00,,,0.00,weatherlink.com 1.10,2013-01-05 13:51:00,
2013-01-05 09:06:00,21.5,19.0,30.34,SSW,198,4.0,8.0,89,0.00,,,0.00,weatherlink.com 1.10,2013-01-05 14:06:00,
2013-01-05 09:21:00,23.1,20.0,30.34,South,170,6.0,12.0,88,0.00,,,0.00,weatherlink.com 1.10,2013-01-05 14:21:00,
2013-01-05 09:36:00,24.2,20.0,30.34,SSW,210,6.0,12.0,85,0.00,,,0.00,weatherlink.com 1.10,2013-01-05 14:36:00,
2013-01-05 09:51:00,25.3,21.0,30.33,SSW,212,6.0,8.0,83,0.00,,,0.00,weatherlink.com 1.10,2013-01-05 14:51:00,
2013-01-05 10:06:00,26.5,21.0,30.33,SSE,159,3.0,7.0,81,0.00,,,0.00,weatherlink.com 1.10,2013-01-05 15:06:00,
2013-01-05 10:21:00,27.5,22.0,30.33,South,186,7.0,8.0,79,0.00,,,0.00,weatherlink.com 1.10,2013-01-05 15:21:00,
2013-01-05 10:36:00,28.1,22.0,30.32,SSE,157,3.0,8.0,77,0.00,,,0.00,weatherlink.com 1.10,2013-01-05 15:36:00,
2013-01-05 10:52:00,27.8,22.0,30.31,SSE,148,2.0,6.0,78,0.00,,,0.00,weatherlink.com 1.10,2013-01-05 15:52:00,
2013-01-05 11:07:00,28.1,22.0,30.30,SE,141,1.0,6.0,78,0.00,,,0.00,weatherlink.com 1.10,2013-01-05 16:07:00,
2013-01-05 11:22:00,29.3,23.0,30.30,ESE,103,1.0,4.0,77,0.00,,,0.00,weatherlink.com 1.10,2013-01-05 16:22:00,
2013-01-05 11:37:00,29.7,23.0,30.30,SSE,159,5.0,6.0,75,0.00,,,0.00,weatherlink.com 1.10,2013-01-05 16:37:00,
2013-01-05 11:52:00,31.0,24.0,30.29,South,188,2.0,6.0,75,0.00,,,0.00,weatherlink.com 1.10,2013-01-05 16:52:00,
2013-01-05 12:07:00,32.6,24.0,30.28,SSE,152,2.0,7.0,72,0.00,,,0.00,weatherlink.com 1.10,2013-01-05 17:07:00,
2013-01-05 12:22:00,33.5,25.0,30.27,SE,133,5.0,7.0,70,0.00,,,0.00,weatherlink.com 1.10,2013-01-05 17:22:00,
2013-01-05 12:37:00,32.1,24.0,30.26,SSE,165,3.0,6.0,72,0.00,,,0.00,weatherlink.com 1.10,2013-01-05 17:37:00,
2013-01-05 12:52:00,32.5,24.0,30.25,SSW,193,6.0,8.0,71,0.00,,,0.00,weatherlink.com 1.10,2013-01-05 17:52:00,
2013-01-05 13:07:00,31.8,24.0,30.24,SSW,193,8.0,10.0,72,0.00,,,0.00,weatherlink.com 1.10,2013-01-05 18:07:00,
2013-01-05 13:22:00,32.0,25.0,30.23,South,188,5.0,8.0,74,0.00,,,0.00,weatherlink.com 1.10,2013-01-05 18:22:00,
2013-01-05 13:37:00,32.5,25.0,30.22,SSE,165,5.0,8.0,74,0.00,,,0.00,weatherlink.com 1.10,2013-01-05 18:37:00,
2013-01-05 13:52:00,33.3,26.0,30.21,SSW,193,6.0,9.0,73,0.00,,,0.00,weatherlink.com 1.10,2013-01-05 18:52:00,
2013-01-05 14:07:00,34.0,26.0,30.20,SSE,167,8.0,12.0,72,0.00,,,0.00,weatherlink.com 1.10,2013-01-05 19:07:00,
2013-01-05 14:22:00,35.1,27.0,30.20,SSW,193,10.0,14.0,71,0.00,,,0.00,weatherlink.com 1.10,2013-01-05 19:22:00,
2013-01-05 14:37:00,35.3,26.0,30.19,SSW,204,12.0,12.0,70,0.00,,,0.00,weatherlink.com 1.10,2013-01-05 19:37:00,
2013-01-05 14:52:00,34.8,27.0,30.18,SSE,148,8.0,12.0,72,0.00,,,0.00,weatherlink.com 1.10,2013-01-05 19:52:00,
2013-01-05 15:07:00,34.3,26.0,30.17,SSW,198,4.0,10.0,72,0.00,,,0.00,weatherlink.com 1.10,2013-01-05 20:07:00,
2013-01-05 15:22:00,33.9,26.0,30.18,SSW,210,6.0,12.0,74,0.00,,,0.00,weatherlink.com 1.10,2013-01-05 20:22:00,
2013-01-05 15:37:00,34.0,27.0,30.18,SSE,166,4.0,10.0,75,0.00,,,0.00,weatherlink.com 1.10,2013-01-05 20:37:00,
2013-01-05 15:52:00,33.7,27.0,30.17,South,184,6.0,12.0,75,0.00,,,0.00,weatherlink.com 1.10,2013-01-05 20:52:00,
2013-01-05 16:07:00,33.6,27.0,30.18,SW,226,8.0,13.0,76,0.00,,,0.00,weatherlink.com 1.10,2013-01-05 21:07:00,
2013-01-05 16:22:00,33.6,27.0,30.18,SW,215,12.0,14.0,76,0.00,,,0.00,weatherlink.com 1.10,2013-01-05 21:22:00,
2013-01-05 16:37:00,33.6,27.0,30.18,SSW,198,8.0,15.0,77,0.00,,,0.00,weatherlink.com 1.10,2013-01-05 21:37:00,
2013-01-05 16:52:00,33.5,28.0,30.17,SW,228,8.0,16.0,79,0.00,,,0.00,weatherlink.com 1.10,2013-01-05 21:52:00,
2013-01-05 17:07:00,33.1,28.0,30.18,SSW,204,5.0,14.0,82,0.00,,,0.00,weatherlink.com 1.10,2013-01-05 22:07:00,
2013-01-05 17:22:00,32.7,28.0,30.17,South,188,10.0,12.0,83,0.00,,,0.00,weatherlink.com 1.10,2013-01-05 22:22:00,
2013-01-05 17:37:00,32.4,28.0,30.18,SSW,194,8.0,14.0,85,0.00,,,0.00,weatherlink.com 1.10,2013-01-05 22:37:00,
2013-01-05 17:52:00,32.2,29.0,30.17,SSW,210,5.0,14.0,86,0.00,,,0.00,weatherlink.com 1.10,2013-01-05 22:52:00,
2013-01-05 18:07:00,32.1,29.0,30.17,South,191,4.0,11.0,88,0.00,,,0.00,weatherlink.com 1.10,2013-01-05 23:07:00,
2013-01-05 18:22:00,31.9,29.0,30.16,South,169,6.0,11.0,89,0.00,,,0.00,weatherlink.com 1.10,2013-01-05 23:22:00,
2013-01-05 18:37:00,31.8,29.0,30.16,SSW,198,5.0,9.0,89,0.00,,,0.00,weatherlink.com 1.10,2013-01-05 23:37:00,
2013-01-05 18:53:00,31.7,29.0,30.16,SSW,195,5.0,9.0,89,0.00,,,0.00,weatherlink.com 1.10,2013-01-05 23:53:00,
2013-01-05 19:08:00,31.5,29.0,30.16,South,177,5.0,10.0,89,0.00,,,0.00,weatherlink.com 1.10,2013-01-06 00:08:00,
2013-01-05 19:23:00,31.5,29.0,30.16,South,188,5.0,10.0,89,0.00,,,0.00,weatherlink.com 1.10,2013-01-06 00:23:00,
2013-01-05 19:38:00,31.6,29.0,30.16,SSW,212,6.0,9.0,89,0.00,,,0.00,weatherlink.com 1.10,2013-01-06 00:38:00,
2013-01-05 19:53:00,31.7,29.0,30.16,South,183,5.0,11.0,88,0.00,,,0.00,weatherlink.com 1.10,2013-01-06 00:53:00,
2013-01-05 20:08:00,31.9,29.0,30.16,South,170,9.0,11.0,87,0.00,,,0.00,weatherlink.com 1.10,2013-01-06 01:08:00,
2013-01-05 20:23:00,32.1,28.0,30.15,South,181,9.0,13.0,86,0.00,,,0.00,weatherlink.com 1.10,2013-01-06 01:23:00,
2013-01-05 20:38:00,32.1,28.0,30.15,South,187,5.0,12.0,86,0.00,,,0.00,weatherlink.com 1.10,2013-01-06 01:38:00,
2013-01-05 20:53:00,32.1,28.0,30.15,South,190,7.0,12.0,85,0.00,,,0.00,weatherlink.com 1.10,2013-01-06 01:53:00,
2013-01-05 21:08:00,32.0,28.0,30.15,South,191,8.0,13.0,85,0.00,,,0.00,weatherlink.com 1.10,2013-01-06 02:08:00,
2013-01-05 21:23:00,32.0,28.0,30.14,South,184,13.0,14.0,85,0.00,,,0.00,weatherlink.com 1.10,2013-01-06 02:23:00,
2013-01-05 21:38:00,32.1,28.0,30.14,SSW,208,8.0,15.0,85,0.00,,,0.00,weatherlink.com 1.10,2013-01-06 02:38:00,
2013-01-05 21:53:00,32.3,28.0,30.14,SSW,210,8.0,12.0,85,0.00,,,0.00,weatherlink.com 1.10,2013-01-06 02:53:00,
2013-01-05 22:08:00,32.7,28.0,30.13,South,191,6.0,16.0,84,0.00,,,0.00,weatherlink.com 1.10,2013-01-06 03:08:00,
2013-01-05 22:23:00,32.9,29.0,30.12,SW,217,5.0,12.0,84,0.00,,,0.00,weatherlink.com 1.10,2013-01-06 03:23:00,
2013-01-05 22:38:00,33.1,29.0,30.12,South,183,5.0,13.0,84,0.00,,,0.00,weatherlink.com 1.10,2013-01-06 03:38:00,
2013-01-05 22:53:00,33.3,29.0,30.11,SSE,166,16.0,19.0,83,0.00,,,0.00,weatherlink.com 1.10,2013-01-06 03:53:00,
2013-01-05 23:08:00,33.5,29.0,30.12,SW,229,11.0,14.0,82,0.00,,,0.00,weatherlink.com 1.10,2013-01-06 04:08:00,
2013-01-05 23:23:00,33.5,29.0,30.11,SSW,210,7.0,16.0,83,0.00,,,0.00,weatherlink.com 1.10,2013-01-06 04:23:00,
2013-01-05 23:38:00,33.4,29.0,30.11,SW,220,14.0,19.0,83,0.00,,,0.00,weatherlink.com 1.10,2013-01-06 04:38:00,
2013-01-05 23:53:00,33.5,29.0,30.10,SSW,208,10.0,17.0,84,0.00,,,0.00,weatherlink.com 1.10,2013-01-06 04:53:00,